Gasquet, California
Current Conditions -  °F | °C
As of 7:56 AM on Sunday 23 Nov 2014 (Local Time) from KCEC Reporting Station
Clear Clear  
Wind Chill: 45°   Ceiling: Unl
Heat Index: 47°   Visibility: 10mi
Dew Point: 43°   Wind: 5mph
Humidity: 86%   Direction: 100°E
Pressure: 30.4"   Gusts: NA
Location:  41.85°N, 123.97°W
Report Text: KCEC 231556Z AUTO 10004KT 10SM CLR 08/06 A3040 RMK AO2 SLP294 T00830061
Loading
Personal Weather Stations






























Interactive Weather Map New forecast layout! Learn more

10-Day Weather Forecast

Advertisements
Track Severe Weather on mobile